sensor_id;sensor_type;location;lat;lon;timestamp;P1;durP1;ratioP1;P2;durP2;ratioP2
52768;SDS011;40471;44.534;18.644;2024-03-08T00:00:07;34.58;;;23.90;;
52768;SDS011;40471;44.534;18.644;2024-03-08T00:02:41;40.80;;;26.98;;
52768;SDS011;40471;44.534;18.644;2024-03-08T00:05:07;43.42;;;30.75;;
52768;SDS011;40471;44.534;18.644;2024-03-08T00:07:43;36.33;;;26.92;;
52768;SDS011;40471;44.534;18.644;2024-03-08T00:10:09;50.08;;;31.80;;
52768;SDS011;40471;44.534;18.644;2024-03-08T00:12:36;42.10;;;29.58;;
52768;SDS011;40471;44.534;18.644;2024-03-08T00:15:09;45.30;;;33.17;;
52768;SDS011;40471;44.534;18.644;2024-03-08T00:17:42;62.80;;;38.97;;
52768;SDS011;40471;44.534;18.644;2024-03-08T00:20:09;81.72;;;41.03;;
52768;SDS011;40471;44.534;18.644;2024-03-08T00:22:35;63.92;;;44.45;;
52768;SDS011;40471;44.534;18.644;2024-03-08T00:25:03;66.25;;;39.25;;
52768;SDS011;40471;44.534;18.644;2024-03-08T00:29:59;71.20;;;42.55;;
52768;SDS011;40471;44.534;18.644;2024-03-08T00:32:25;97.68;;;53.53;;
52768;SDS011;40471;44.534;18.644;2024-03-08T00:34:52;86.78;;;53.70;;
52768;SDS011;40471;44.534;18.644;2024-03-08T00:37:19;78.05;;;48.85;;
52768;SDS011;40471;44.534;18.644;2024-03-08T00:39:47;59.10;;;35.67;;
52768;SDS011;40471;44.534;18.644;2024-03-08T00:42:16;51.30;;;28.92;;
52768;SDS011;40471;44.534;18.644;2024-03-08T00:44:42;38.13;;;27.33;;
52768;SDS011;40471;44.534;18.644;2024-03-08T00:47:08;42.43;;;25.23;;
52768;SDS011;40471;44.534;18.644;2024-03-08T00:49:34;36.37;;;23.80;;
52768;SDS011;40471;44.534;18.644;2024-03-08T00:52:03;42.42;;;28.15;;
52768;SDS011;40471;44.534;18.644;2024-03-08T00:54:32;37.35;;;26.35;;
52768;SDS011;40471;44.534;18.644;2024-03-08T00:56:58;51.50;;;30.77;;
52768;SDS011;40471;44.534;18.644;2024-03-08T00:59:25;43.78;;;29.77;;
52768;SDS011;40471;44.534;18.644;2024-03-08T01:01:51;57.80;;;37.03;;
52768;SDS011;40471;44.534;18.644;2024-03-08T01:04:16;58.70;;;31.03;;
52768;SDS011;40471;44.534;18.644;2024-03-08T01:06:44;51.40;;;29.17;;
52768;SDS011;40471;44.534;18.644;2024-03-08T01:09:12;48.47;;;31.23;;
52768;SDS011;40471;44.534;18.644;2024-03-08T01:11:38;44.65;;;32.00;;
52768;SDS011;40471;44.534;18.644;2024-03-08T01:14:04;51.60;;;32.47;;
52768;SDS011;40471;44.534;18.644;2024-03-08T01:16:30;51.87;;;31.67;;
52768;SDS011;40471;44.534;18.644;2024-03-08T01:18:58;52.63;;;32.72;;
52768;SDS011;40471;44.534;18.644;2024-03-08T01:21:24;52.83;;;31.63;;
52768;SDS011;40471;44.534;18.644;2024-03-08T01:23:49;62.70;;;38.97;;
52768;SDS011;40471;44.534;18.644;2024-03-08T01:26:15;75.87;;;47.40;;
52768;SDS011;40471;44.534;18.644;2024-03-08T01:28:41;113.47;;;60.33;;
52768;SDS011;40471;44.534;18.644;2024-03-08T01:31:07;111.63;;;65.20;;
52768;SDS011;40471;44.534;18.644;2024-03-08T01:33:32;106.40;;;61.33;;
52768;SDS011;40471;44.534;18.644;2024-03-08T01:35:58;101.50;;;60.20;;
52768;SDS011;40471;44.534;18.644;2024-03-08T01:38:24;99.40;;;57.00;;
52768;SDS011;40471;44.534;18.644;2024-03-08T01:40:50;118.53;;;62.30;;
52768;SDS011;40471;44.534;18.644;2024-03-08T01:43:25;120.60;;;62.15;;
52768;SDS011;40471;44.534;18.644;2024-03-08T01:45:55;106.47;;;73.43;;
52768;SDS011;40471;44.534;18.644;2024-03-08T01:48:23;72.13;;;46.00;;
52768;SDS011;40471;44.534;18.644;2024-03-08T01:50:50;79.73;;;47.23;;
52768;SDS011;40471;44.534;18.644;2024-03-08T01:53:17;89.88;;;54.30;;
52768;SDS011;40471;44.534;18.644;2024-03-08T01:55:47;100.82;;;61.35;;
52768;SDS011;40471;44.534;18.644;2024-03-08T01:58:13;92.63;;;51.55;;
52768;SDS011;40471;44.534;18.644;2024-03-08T02:00:46;93.10;;;55.08;;
52768;SDS011;40471;44.534;18.644;2024-03-08T02:03:16;83.68;;;50.25;;
52768;SDS011;40471;44.534;18.644;2024-03-08T02:05:43;73.47;;;48.45;;
52768;SDS011;40471;44.534;18.644;2024-03-08T02:08:09;75.03;;;49.03;;
52768;SDS011;40471;44.534;18.644;2024-03-08T02:10:39;81.75;;;49.08;;
52768;SDS011;40471;44.534;18.644;2024-03-08T02:13:14;74.88;;;45.25;;
52768;SDS011;40471;44.534;18.644;2024-03-08T02:15:53;67.33;;;47.60;;
52768;SDS011;40471;44.534;18.644;2024-03-08T02:18:20;80.35;;;47.58;;
52768;SDS011;40471;44.534;18.644;2024-03-08T02:23:13;73.93;;;49.88;;
52768;SDS011;40471;44.534;18.644;2024-03-08T02:25:39;61.38;;;41.70;;
52768;SDS011;40471;44.534;18.644;2024-03-08T02:28:08;65.50;;;44.35;;
52768;SDS011;40471;44.534;18.644;2024-03-08T02:30:36;78.40;;;50.78;;
52768;SDS011;40471;44.534;18.644;2024-03-08T02:33:01;124.57;;;78.00;;
52768;SDS011;40471;44.534;18.644;2024-03-08T02:35:27;141.73;;;81.00;;
52768;SDS011;40471;44.534;18.644;2024-03-08T02:37:53;125.37;;;74.97;;
52768;SDS011;40471;44.534;18.644;2024-03-08T02:40:19;89.13;;;60.03;;
52768;SDS011;40471;44.534;18.644;2024-03-08T02:42:44;97.30;;;55.10;;
52768;SDS011;40471;44.534;18.644;2024-03-08T02:47:37;70.85;;;46.00;;
52768;SDS011;40471;44.534;18.644;2024-03-08T02:50:03;65.00;;;44.50;;
52768;SDS011;40471;44.534;18.644;2024-03-08T02:52:29;89.82;;;55.97;;
52768;SDS011;40471;44.534;18.644;2024-03-08T02:54:55;77.50;;;51.80;;
52768;SDS011;40471;44.534;18.644;2024-03-08T02:57:21;66.17;;;47.50;;
52768;SDS011;40471;44.534;18.644;2024-03-08T02:59:47;74.07;;;49.97;;
52768;SDS011;40471;44.534;18.644;2024-03-08T03:02:13;89.27;;;55.23;;
52768;SDS011;40471;44.534;18.644;2024-03-08T03:04:41;76.93;;;56.17;;
52768;SDS011;40471;44.534;18.644;2024-03-08T03:07:08;74.35;;;49.10;;
52768;SDS011;40471;44.534;18.644;2024-03-08T03:09:33;60.23;;;41.13;;
52768;SDS011;40471;44.534;18.644;2024-03-08T03:12:00;56.78;;;44.00;;
52768;SDS011;40471;44.534;18.644;2024-03-08T03:14:25;77.13;;;48.07;;
52768;SDS011;40471;44.534;18.644;2024-03-08T03:16:54;66.15;;;42.70;;
52768;SDS011;40471;44.534;18.644;2024-03-08T03:19:20;64.43;;;42.93;;
52768;SDS011;40471;44.534;18.644;2024-03-08T03:21:46;73.87;;;53.87;;
52768;SDS011;40471;44.534;18.644;2024-03-08T03:24:12;60.90;;;40.10;;
52768;SDS011;40471;44.534;18.644;2024-03-08T03:26:41;60.28;;;39.60;;
52768;SDS011;40471;44.534;18.644;2024-03-08T03:29:08;52.75;;;36.53;;
52768;SDS011;40471;44.534;18.644;2024-03-08T03:31:36;47.05;;;33.70;;
52768;SDS011;40471;44.534;18.644;2024-03-08T03:34:02;57.47;;;36.53;;
52768;SDS011;40471;44.534;18.644;2024-03-08T03:38:58;67.00;;;41.88;;
52768;SDS011;40471;44.534;18.644;2024-03-08T03:41:38;53.92;;;34.80;;
52768;SDS011;40471;44.534;18.644;2024-03-08T03:44:07;72.68;;;43.70;;
52768;SDS011;40471;44.534;18.644;2024-03-08T03:46:34;93.03;;;56.67;;
52768;SDS011;40471;44.534;18.644;2024-03-08T03:49:00;91.05;;;54.70;;
52768;SDS011;40471;44.534;18.644;2024-03-08T03:51:26;61.90;;;37.03;;
52768;SDS011;40471;44.534;18.644;2024-03-08T03:53:54;62.00;;;42.15;;
52768;SDS011;40471;44.534;18.644;2024-03-08T03:56:24;73.78;;;47.10;;
52768;SDS011;40471;44.534;18.644;2024-03-08T03:58:51;54.17;;;30.63;;
52768;SDS011;40471;44.534;18.644;2024-03-08T04:01:17;58.60;;;33.20;;
52768;SDS011;40471;44.534;18.644;2024-03-08T04:03:44;61.70;;;34.38;;
52768;SDS011;40471;44.534;18.644;2024-03-08T04:06:11;63.50;;;37.08;;
52768;SDS011;40471;44.534;18.644;2024-03-08T04:08:37;64.50;;;43.63;;
52768;SDS011;40471;44.534;18.644;2024-03-08T04:11:03;58.70;;;41.60;;
52768;SDS011;40471;44.534;18.644;2024-03-08T04:13:30;67.40;;;45.85;;
52768;SDS011;40471;44.534;18.644;2024-03-08T04:15:56;49.40;;;35.60;;
52768;SDS011;40471;44.534;18.644;2024-03-08T04:18:21;54.17;;;36.30;;
52768;SDS011;40471;44.534;18.644;2024-03-08T04:20:47;61.97;;;36.77;;
52768;SDS011;40471;44.534;18.644;2024-03-08T04:23:13;60.47;;;34.27;;
52768;SDS011;40471;44.534;18.644;2024-03-08T04:25:40;56.17;;;38.13;;
52768;SDS011;40471;44.534;18.644;2024-03-08T04:28:07;48.03;;;31.75;;
52768;SDS011;40471;44.534;18.644;2024-03-08T04:30:35;52.40;;;29.40;;
52768;SDS011;40471;44.534;18.644;2024-03-08T04:33:02;40.78;;;27.92;;
52768;SDS011;40471;44.534;18.644;2024-03-08T04:35:28;48.53;;;26.20;;
52768;SDS011;40471;44.534;18.644;2024-03-08T04:40:22;45.87;;;30.20;;
52768;SDS011;40471;44.534;18.644;2024-03-08T04:42:48;67.30;;;45.77;;
52768;SDS011;40471;44.534;18.644;2024-03-08T04:45:16;63.25;;;38.03;;
52768;SDS011;40471;44.534;18.644;2024-03-08T04:47:42;55.15;;;36.92;;
52768;SDS011;40471;44.534;18.644;2024-03-08T04:50:08;59.03;;;37.30;;
52768;SDS011;40471;44.534;18.644;2024-03-08T04:52:34;54.53;;;35.08;;
52768;SDS011;40471;44.534;18.644;2024-03-08T04:55:01;56.88;;;36.78;;
52768;SDS011;40471;44.534;18.644;2024-03-08T04:57:30;60.58;;;41.50;;
52768;SDS011;40471;44.534;18.644;2024-03-08T04:59:56;74.63;;;39.57;;
52768;SDS011;40471;44.534;18.644;2024-03-08T05:02:23;54.53;;;32.08;;
52768;SDS011;40471;44.534;18.644;2024-03-08T05:04:48;68.07;;;40.37;;
52768;SDS011;40471;44.534;18.644;2024-03-08T05:07:14;75.13;;;40.40;;
52768;SDS011;40471;44.534;18.644;2024-03-08T05:09:40;66.47;;;43.17;;
52768;SDS011;40471;44.534;18.644;2024-03-08T05:12:06;56.70;;;38.80;;
52768;SDS011;40471;44.534;18.644;2024-03-08T05:14:33;60.85;;;43.40;;
52768;SDS011;40471;44.534;18.644;2024-03-08T05:17:00;62.35;;;40.97;;
52768;SDS011;40471;44.534;18.644;2024-03-08T05:19:26;61.13;;;39.70;;
52768;SDS011;40471;44.534;18.644;2024-03-08T05:21:55;72.68;;;41.08;;
52768;SDS011;40471;44.534;18.644;2024-03-08T05:24:20;73.67;;;45.10;;
52768;SDS011;40471;44.534;18.644;2024-03-08T05:26:46;68.50;;;45.80;;
52768;SDS011;40471;44.534;18.644;2024-03-08T05:29:12;81.55;;;51.00;;
52768;SDS011;40471;44.534;18.644;2024-03-08T05:31:57;65.05;;;44.90;;
52768;SDS011;40471;44.534;18.644;2024-03-08T05:34:24;53.53;;;38.10;;
52768;SDS011;40471;44.534;18.644;2024-03-08T05:39:17;57.72;;;37.13;;
52768;SDS011;40471;44.534;18.644;2024-03-08T05:41:43;63.03;;;46.50;;
52768;SDS011;40471;44.534;18.644;2024-03-08T05:44:10;52.40;;;35.10;;
52768;SDS011;40471;44.534;18.644;2024-03-08T05:46:37;57.65;;;31.55;;
52768;SDS011;40471;44.534;18.644;2024-03-08T05:49:04;46.78;;;29.77;;
52768;SDS011;40471;44.534;18.644;2024-03-08T05:51:35;41.97;;;29.80;;
52768;SDS011;40471;44.534;18.644;2024-03-08T05:54:02;47.83;;;30.63;;
52768;SDS011;40471;44.534;18.644;2024-03-08T05:56:30;63.70;;;38.80;;
52768;SDS011;40471;44.534;18.644;2024-03-08T05:58:57;48.53;;;33.00;;
52768;SDS011;40471;44.534;18.644;2024-03-08T06:01:26;57.67;;;34.00;;
52768;SDS011;40471;44.534;18.644;2024-03-08T06:03:52;57.78;;;33.95;;
52768;SDS011;40471;44.534;18.644;2024-03-08T06:06:21;52.20;;;37.80;;
52768;SDS011;40471;44.534;18.644;2024-03-08T06:08:47;75.22;;;44.50;;
52768;SDS011;40471;44.534;18.644;2024-03-08T06:11:17;68.82;;;45.22;;
52768;SDS011;40471;44.534;18.644;2024-03-08T06:13:44;67.47;;;46.75;;
52768;SDS011;40471;44.534;18.644;2024-03-08T06:16:10;70.55;;;42.65;;
52768;SDS011;40471;44.534;18.644;2024-03-08T06:18:36;81.15;;;47.15;;
52768;SDS011;40471;44.534;18.644;2024-03-08T06:21:05;83.45;;;50.30;;
52768;SDS011;40471;44.534;18.644;2024-03-08T06:23:32;90.07;;;51.90;;
52768;SDS011;40471;44.534;18.644;2024-03-08T06:25:58;75.43;;;47.08;;
52768;SDS011;40471;44.534;18.644;2024-03-08T06:28:25;74.22;;;50.03;;
52768;SDS011;40471;44.534;18.644;2024-03-08T06:30:50;102.67;;;58.73;;
52768;SDS011;40471;44.534;18.644;2024-03-08T06:33:17;111.97;;;69.00;;
52768;SDS011;40471;44.534;18.644;2024-03-08T06:35:43;88.43;;;56.97;;
52768;SDS011;40471;44.534;18.644;2024-03-08T06:38:09;90.33;;;61.27;;
52768;SDS011;40471;44.534;18.644;2024-03-08T06:40:35;83.67;;;57.83;;
52768;SDS011;40471;44.534;18.644;2024-03-08T06:43:02;64.57;;;41.92;;
52768;SDS011;40471;44.534;18.644;2024-03-08T06:45:31;87.95;;;46.03;;
52768;SDS011;40471;44.534;18.644;2024-03-08T06:47:57;67.25;;;46.22;;
52768;SDS011;40471;44.534;18.644;2024-03-08T06:50:22;68.00;;;47.27;;
52768;SDS011;40471;44.534;18.644;2024-03-08T06:52:48;71.60;;;47.97;;
52768;SDS011;40471;44.534;18.644;2024-03-08T06:55:18;79.05;;;53.47;;
52768;SDS011;40471;44.534;18.644;2024-03-08T06:57:47;103.05;;;64.63;;
52768;SDS011;40471;44.534;18.644;2024-03-08T07:00:13;101.10;;;59.00;;
52768;SDS011;40471;44.534;18.644;2024-03-08T07:02:43;64.85;;;46.97;;
52768;SDS011;40471;44.534;18.644;2024-03-08T07:05:14;69.68;;;47.78;;
52768;SDS011;40471;44.534;18.644;2024-03-08T07:07:41;72.38;;;47.08;;
52768;SDS011;40471;44.534;18.644;2024-03-08T07:10:08;68.78;;;45.75;;
52768;SDS011;40471;44.534;18.644;2024-03-08T07:12:36;68.38;;;45.40;;
52768;SDS011;40471;44.534;18.644;2024-03-08T07:15:05;48.70;;;37.00;;
52768;SDS011;40471;44.534;18.644;2024-03-08T07:17:31;66.70;;;43.78;;
52768;SDS011;40471;44.534;18.644;2024-03-08T07:19:59;65.95;;;47.75;;
52768;SDS011;40471;44.534;18.644;2024-03-08T07:22:32;69.80;;;46.10;;
52768;SDS011;40471;44.534;18.644;2024-03-08T07:24:58;65.85;;;44.83;;
52768;SDS011;40471;44.534;18.644;2024-03-08T07:27:34;58.95;;;45.53;;
52768;SDS011;40471;44.534;18.644;2024-03-08T07:30:01;68.72;;;46.40;;
52768;SDS011;40471;44.534;18.644;2024-03-08T07:32:29;67.63;;;48.72;;
52768;SDS011;40471;44.534;18.644;2024-03-08T07:34:56;71.28;;;44.55;;
52768;SDS011;40471;44.534;18.644;2024-03-08T07:39:49;68.82;;;45.45;;
52768;SDS011;40471;44.534;18.644;2024-03-08T07:42:18;64.57;;;43.60;;
52768;SDS011;40471;44.534;18.644;2024-03-08T07:44:43;72.63;;;43.97;;
52768;SDS011;40471;44.534;18.644;2024-03-08T07:47:11;67.00;;;41.33;;
52768;SDS011;40471;44.534;18.644;2024-03-08T07:49:37;75.25;;;48.88;;
52768;SDS011;40471;44.534;18.644;2024-03-08T07:52:03;62.03;;;38.70;;
52768;SDS011;40471;44.534;18.644;2024-03-08T07:54:32;65.07;;;39.97;;
52768;SDS011;40471;44.534;18.644;2024-03-08T07:57:00;56.33;;;39.13;;
52768;SDS011;40471;44.534;18.644;2024-03-08T07:59:28;59.28;;;39.55;;
52768;SDS011;40471;44.534;18.644;2024-03-08T08:01:56;61.78;;;39.30;;
52768;SDS011;40471;44.534;18.644;2024-03-08T08:04:22;52.63;;;34.65;;
52768;SDS011;40471;44.534;18.644;2024-03-08T08:06:50;54.67;;;36.83;;
52768;SDS011;40471;44.534;18.644;2024-03-08T08:09:16;77.90;;;39.53;;
52768;SDS011;40471;44.534;18.644;2024-03-08T08:11:53;65.40;;;41.00;;
52768;SDS011;40471;44.534;18.644;2024-03-08T08:14:20;63.53;;;40.60;;
52768;SDS011;40471;44.534;18.644;2024-03-08T08:16:46;53.75;;;38.15;;
52768;SDS011;40471;44.534;18.644;2024-03-08T08:19:14;62.60;;;39.38;;
52768;SDS011;40471;44.534;18.644;2024-03-08T08:21:40;76.53;;;43.15;;
52768;SDS011;40471;44.534;18.644;2024-03-08T08:24:06;72.00;;;48.33;;
52768;SDS011;40471;44.534;18.644;2024-03-08T08:26:32;66.10;;;42.58;;
52768;SDS011;40471;44.534;18.644;2024-03-08T08:28:59;63.45;;;35.88;;
52768;SDS011;40471;44.534;18.644;2024-03-08T08:31:25;49.73;;;35.73;;
52768;SDS011;40471;44.534;18.644;2024-03-08T08:33:51;45.17;;;29.58;;
52768;SDS011;40471;44.534;18.644;2024-03-08T08:36:23;46.67;;;31.90;;
52768;SDS011;40471;44.534;18.644;2024-03-08T08:38:49;63.88;;;31.58;;
52768;SDS011;40471;44.534;18.644;2024-03-08T08:41:22;52.10;;;31.08;;
52768;SDS011;40471;44.534;18.644;2024-03-08T08:43:48;55.70;;;34.53;;
52768;SDS011;40471;44.534;18.644;2024-03-08T08:46:17;51.93;;;33.00;;
52768;SDS011;40471;44.534;18.644;2024-03-08T08:48:44;45.90;;;29.83;;
52768;SDS011;40471;44.534;18.644;2024-03-08T08:51:12;46.30;;;28.33;;
52768;SDS011;40471;44.534;18.644;2024-03-08T08:53:39;41.88;;;25.90;;
52768;SDS011;40471;44.534;18.644;2024-03-08T08:56:11;44.13;;;25.88;;
52768;SDS011;40471;44.534;18.644;2024-03-08T08:58:43;44.10;;;29.85;;
52768;SDS011;40471;44.534;18.644;2024-03-08T09:01:11;46.22;;;30.40;;
52768;SDS011;40471;44.534;18.644;2024-03-08T09:03:37;51.33;;;32.80;;
52768;SDS011;40471;44.534;18.644;2024-03-08T09:06:05;70.03;;;39.53;;
52768;SDS011;40471;44.534;18.644;2024-03-08T09:08:35;53.15;;;33.67;;
52768;SDS011;40471;44.534;18.644;2024-03-08T09:11:04;58.80;;;34.20;;
52768;SDS011;40471;44.534;18.644;2024-03-08T09:15:56;45.05;;;29.83;;
52768;SDS011;40471;44.534;18.644;2024-03-08T09:18:22;47.60;;;26.27;;
52768;SDS011;40471;44.534;18.644;2024-03-08T09:20:49;53.25;;;26.08;;
52768;SDS011;40471;44.534;18.644;2024-03-08T09:23:16;37.78;;;25.33;;
52768;SDS011;40471;44.534;18.644;2024-03-08T09:25:45;37.30;;;21.20;;
52768;SDS011;40471;44.534;18.644;2024-03-08T09:30:38;39.75;;;21.15;;
52768;SDS011;40471;44.534;18.644;2024-03-08T09:33:05;37.65;;;19.80;;
52768;SDS011;40471;44.534;18.644;2024-03-08T09:35:32;39.53;;;23.17;;
52768;SDS011;40471;44.534;18.644;2024-03-08T09:37:58;37.25;;;18.15;;
52768;SDS011;40471;44.534;18.644;2024-03-08T09:40:24;47.00;;;19.63;;
52768;SDS011;40471;44.534;18.644;2024-03-08T09:42:52;45.72;;;22.10;;
52768;SDS011;40471;44.534;18.644;2024-03-08T09:45:20;29.48;;;20.10;;
52768;SDS011;40471;44.534;18.644;2024-03-08T09:47:50;28.27;;;18.13;;
52768;SDS011;40471;44.534;18.644;2024-03-08T09:50:17;38.90;;;22.07;;
52768;SDS011;40471;44.534;18.644;2024-03-08T09:55:11;30.90;;;16.90;;
52768;SDS011;40471;44.534;18.644;2024-03-08T09:57:37;24.30;;;17.20;;
52768;SDS011;40471;44.534;18.644;2024-03-08T10:00:03;26.58;;;14.80;;
52768;SDS011;40471;44.534;18.644;2024-03-08T10:02:46;35.75;;;22.63;;
52768;SDS011;40471;44.534;18.644;2024-03-08T10:05:13;22.08;;;14.65;;
52768;SDS011;40471;44.534;18.644;2024-03-08T10:07:39;25.95;;;12.40;;
52768;SDS011;40471;44.534;18.644;2024-03-08T10:10:10;24.67;;;14.68;;
52768;SDS011;40471;44.534;18.644;2024-03-08T10:12:43;27.50;;;15.63;;
52768;SDS011;40471;44.534;18.644;2024-03-08T10:15:12;40.63;;;20.27;;
52768;SDS011;40471;44.534;18.644;2024-03-08T10:17:41;34.83;;;22.42;;
52768;SDS011;40471;44.534;18.644;2024-03-08T10:20:18;32.08;;;16.88;;
52768;SDS011;40471;44.534;18.644;2024-03-08T10:22:44;21.60;;;16.05;;
52768;SDS011;40471;44.534;18.644;2024-03-08T10:25:11;39.00;;;17.17;;
52768;SDS011;40471;44.534;18.644;2024-03-08T10:27:40;23.80;;;14.65;;
52768;SDS011;40471;44.534;18.644;2024-03-08T10:30:14;29.30;;;21.77;;
52768;SDS011;40471;44.534;18.644;2024-03-08T10:32:44;20.02;;;12.75;;
52768;SDS011;40471;44.534;18.644;2024-03-08T10:35:10;25.67;;;14.15;;
52768;SDS011;40471;44.534;18.644;2024-03-08T10:37:59;20.27;;;12.10;;
52768;SDS011;40471;44.534;18.644;2024-03-08T10:40:28;44.38;;;17.63;;
52768;SDS011;40471;44.534;18.644;2024-03-08T10:42:55;28.42;;;13.95;;
52768;SDS011;40471;44.534;18.644;2024-03-08T10:47:55;21.85;;;13.48;;
52768;SDS011;40471;44.534;18.644;2024-03-08T10:50:33;25.92;;;13.88;;
52768;SDS011;40471;44.534;18.644;2024-03-08T10:53:00;34.38;;;22.05;;
52768;SDS011;40471;44.534;18.644;2024-03-08T10:55:28;32.22;;;14.70;;
52768;SDS011;40471;44.534;18.644;2024-03-08T10:57:55;36.92;;;22.80;;
52768;SDS011;40471;44.534;18.644;2024-03-08T11:00:21;19.70;;;13.93;;
52768;SDS011;40471;44.534;18.644;2024-03-08T11:02:53;36.45;;;14.90;;
52768;SDS011;40471;44.534;18.644;2024-03-08T11:08:15;46.33;;;27.35;;
52768;SDS011;40471;44.534;18.644;2024-03-08T11:13:41;19.50;;;12.57;;
52768;SDS011;40471;44.534;18.644;2024-03-08T11:16:09;23.73;;;16.10;;
52768;SDS011;40471;44.534;18.644;2024-03-08T11:18:36;18.33;;;11.15;;
52768;SDS011;40471;44.534;18.644;2024-03-08T11:21:08;15.43;;;11.73;;
52768;SDS011;40471;44.534;18.644;2024-03-08T11:23:37;34.20;;;19.00;;
52768;SDS011;40471;44.534;18.644;2024-03-08T11:26:17;58.53;;;20.35;;
52768;SDS011;40471;44.534;18.644;2024-03-08T11:28:46;36.17;;;18.80;;
52768;SDS011;40471;44.534;18.644;2024-03-08T11:33:40;45.72;;;16.25;;
52768;SDS011;40471;44.534;18.644;2024-03-08T11:36:21;23.90;;;16.85;;
52768;SDS011;40471;44.534;18.644;2024-03-08T11:38:49;38.22;;;16.45;;
52768;SDS011;40471;44.534;18.644;2024-03-08T11:41:24;40.03;;;22.45;;
52768;SDS011;40471;44.534;18.644;2024-03-08T11:44:01;26.73;;;12.95;;
52768;SDS011;40471;44.534;18.644;2024-03-08T11:46:31;19.90;;;12.25;;
52768;SDS011;40471;44.534;18.644;2024-03-08T11:48:56;40.47;;;17.03;;
52768;SDS011;40471;44.534;18.644;2024-03-08T11:51:26;34.75;;;16.40;;
52768;SDS011;40471;44.534;18.644;2024-03-08T11:53:52;30.42;;;16.58;;
52768;SDS011;40471;44.534;18.644;2024-03-08T11:56:18;35.38;;;18.75;;
52768;SDS011;40471;44.534;18.644;2024-03-08T11:58:54;33.10;;;13.85;;
52768;SDS011;40471;44.534;18.644;2024-03-08T12:01:24;27.90;;;12.63;;
52768;SDS011;40471;44.534;18.644;2024-03-08T12:03:54;18.02;;;11.98;;
52768;SDS011;40471;44.534;18.644;2024-03-08T12:06:24;19.85;;;9.05;;
52768;SDS011;40471;44.534;18.644;2024-03-08T12:08:50;16.73;;;11.65;;
52768;SDS011;40471;44.534;18.644;2024-03-08T12:11:19;17.20;;;12.38;;
52768;SDS011;40471;44.534;18.644;2024-03-08T12:13:48;17.08;;;11.90;;
52768;SDS011;40471;44.534;18.644;2024-03-08T12:16:18;22.40;;;11.52;;
52768;SDS011;40471;44.534;18.644;2024-03-08T12:18:46;21.85;;;13.70;;
52768;SDS011;40471;44.534;18.644;2024-03-08T12:21:13;17.92;;;11.77;;
52768;SDS011;40471;44.534;18.644;2024-03-08T12:23:42;29.80;;;12.75;;
52768;SDS011;40471;44.534;18.644;2024-03-08T12:26:16;34.17;;;14.27;;
52768;SDS011;40471;44.534;18.644;2024-03-08T12:28:44;35.67;;;20.23;;
52768;SDS011;40471;44.534;18.644;2024-03-08T12:31:13;43.40;;;19.00;;
52768;SDS011;40471;44.534;18.644;2024-03-08T12:36:18;30.05;;;14.13;;
52768;SDS011;40471;44.534;18.644;2024-03-08T12:38:45;24.48;;;15.13;;
52768;SDS011;40471;44.534;18.644;2024-03-08T12:41:18;22.38;;;14.90;;
52768;SDS011;40471;44.534;18.644;2024-03-08T12:43:44;17.42;;;13.40;;
52768;SDS011;40471;44.534;18.644;2024-03-08T12:46:17;27.58;;;15.93;;
52768;SDS011;40471;44.534;18.644;2024-03-08T12:48:47;25.08;;;13.50;;
52768;SDS011;40471;44.534;18.644;2024-03-08T12:51:14;28.17;;;13.30;;
52768;SDS011;40471;44.534;18.644;2024-03-08T12:53:41;20.38;;;13.75;;
52768;SDS011;40471;44.534;18.644;2024-03-08T12:56:36;20.00;;;12.65;;
52768;SDS011;40471;44.534;18.644;2024-03-08T12:59:05;28.42;;;16.58;;
52768;SDS011;40471;44.534;18.644;2024-03-08T13:01:35;21.52;;;13.60;;
52768;SDS011;40471;44.534;18.644;2024-03-08T13:04:03;26.83;;;15.48;;
52768;SDS011;40471;44.534;18.644;2024-03-08T13:06:31;21.30;;;12.70;;
52768;SDS011;40471;44.534;18.644;2024-03-08T13:08:57;29.90;;;15.85;;
52768;SDS011;40471;44.534;18.644;2024-03-08T13:11:24;39.03;;;16.05;;
52768;SDS011;40471;44.534;18.644;2024-03-08T13:13:50;28.98;;;13.43;;
52768;SDS011;40471;44.534;18.644;2024-03-08T13:16:17;35.10;;;16.38;;
52768;SDS011;40471;44.534;18.644;2024-03-08T13:18:44;21.83;;;14.85;;
52768;SDS011;40471;44.534;18.644;2024-03-08T13:21:14;37.50;;;17.90;;
52768;SDS011;40471;44.534;18.644;2024-03-08T13:23:40;23.58;;;15.48;;
52768;SDS011;40471;44.534;18.644;2024-03-08T13:26:10;18.95;;;13.55;;
52768;SDS011;40471;44.534;18.644;2024-03-08T13:28:40;23.35;;;15.68;;
52768;SDS011;40471;44.534;18.644;2024-03-08T13:31:08;22.33;;;13.52;;
52768;SDS011;40471;44.534;18.644;2024-03-08T13:33:37;25.52;;;10.82;;
52768;SDS011;40471;44.534;18.644;2024-03-08T13:36:11;25.00;;;14.65;;
52768;SDS011;40471;44.534;18.644;2024-03-08T13:38:41;23.70;;;16.85;;
52768;SDS011;40471;44.534;18.644;2024-03-08T13:41:13;25.58;;;17.38;;
52768;SDS011;40471;44.534;18.644;2024-03-08T13:43:41;24.10;;;15.45;;
52768;SDS011;40471;44.534;18.644;2024-03-08T13:46:11;16.98;;;11.27;;
52768;SDS011;40471;44.534;18.644;2024-03-08T13:48:46;17.15;;;11.57;;
52768;SDS011;40471;44.534;18.644;2024-03-08T13:51:13;19.38;;;11.90;;
52768;SDS011;40471;44.534;18.644;2024-03-08T13:53:45;18.48;;;9.50;;
52768;SDS011;40471;44.534;18.644;2024-03-08T13:56:11;22.25;;;13.38;;
52768;SDS011;40471;44.534;18.644;2024-03-08T13:58:37;14.93;;;8.48;;
52768;SDS011;40471;44.534;18.644;2024-03-08T14:01:05;19.23;;;12.88;;
52768;SDS011;40471;44.534;18.644;2024-03-08T14:03:36;18.20;;;11.63;;
52768;SDS011;40471;44.534;18.644;2024-03-08T14:06:06;18.35;;;11.13;;
52768;SDS011;40471;44.534;18.644;2024-03-08T14:08:32;15.43;;;9.70;;
52768;SDS011;40471;44.534;18.644;2024-03-08T14:10:58;18.98;;;9.27;;
52768;SDS011;40471;44.534;18.644;2024-03-08T14:13:24;20.20;;;9.88;;
52768;SDS011;40471;44.534;18.644;2024-03-08T14:15:51;24.42;;;12.45;;
52768;SDS011;40471;44.534;18.644;2024-03-08T14:18:17;18.35;;;8.65;;
52768;SDS011;40471;44.534;18.644;2024-03-08T14:20:43;17.83;;;12.73;;
52768;SDS011;40471;44.534;18.644;2024-03-08T14:23:09;16.20;;;11.38;;
52768;SDS011;40471;44.534;18.644;2024-03-08T14:25:37;17.33;;;9.40;;
52768;SDS011;40471;44.534;18.644;2024-03-08T14:28:03;19.65;;;11.45;;
52768;SDS011;40471;44.534;18.644;2024-03-08T14:30:32;50.20;;;14.25;;
52768;SDS011;40471;44.534;18.644;2024-03-08T14:33:03;30.98;;;18.55;;
52768;SDS011;40471;44.534;18.644;2024-03-08T14:35:34;30.85;;;19.38;;
52768;SDS011;40471;44.534;18.644;2024-03-08T14:38:04;21.95;;;11.63;;
52768;SDS011;40471;44.534;18.644;2024-03-08T14:40:33;31.85;;;18.80;;
52768;SDS011;40471;44.534;18.644;2024-03-08T14:42:59;29.98;;;13.55;;
52768;SDS011;40471;44.534;18.644;2024-03-08T14:45:25;21.23;;;12.57;;
52768;SDS011;40471;44.534;18.644;2024-03-08T14:47:51;21.65;;;13.90;;
52768;SDS011;40471;44.534;18.644;2024-03-08T14:50:18;22.30;;;10.00;;